메인 페이지
METAR-TAF:

METAR-TAF

공항 :

아우랑가바드, 인도

위도: 19-51-46N, 경도: 75-23-53E, 고도: 582m

현재 날씨관측

예보는 5 시간 20분 전, 18:00시(UTC)에 발표되었습니다.
북서3kt
온도 23°C
습도 83%
기압 1015 hPa
시정: 6000m

METAR: VAAU 311800Z 32003KT 6000 NSC 23/20 Q1015 NOSIG

시각: 04:50 (23:20 UTC)

예보

예보는 15 시간 20분 전, 08:00시(UTC)에 발표되었습니다.
예보 대상 시간: 31일 09시부터 31일 18시까지 (UTC)
4kt
시정: 6000m
고도 2000ft 상공 구름 조금
고도 2500ft 상공 구름 보통
전환 중
31일 10시부터 31일 12시까지 (UTC)
북북서6kt
시정: 5000m
연무
일시적
31일 12시부터 31일 18시까지 (UTC)
시정: 3000m
고도 1800ft 상공 구름 조금
고도 10000ft 상공 구름 보통
뇌우, 약한비, 약한소나기
전환 중
31일 16시부터 31일 18시까지 (UTC)
kt
시정: 4000m
고도 2000ft 상공 구름 조금
고도 10000ft 상공 구름 보통
연무, 박무

TAF: VAAU 310800Z 3109/3118 27004KT 6000 FEW020 SCT025 BECMG 3110/3112 34006KT 5000 HZ TEMPO 3112/3118 3000 -TSRA -SHRA FEW018 FEW030TCU/CB SCT100 BECMG 3116/3118 00000KT 4000 HZ BR FEW020 SCT100

4,000개 이상의 공항 관측 자료 및 예보 (METAR 및 TAF 보고).

지도상에서 검색 가능한 기상관측소가 노란 점과 빨간 점으로 표시되어 있습니다.

기상관측소 명을 보려면 표시 위로 마우스를 이동하세요.

날씨 관측과 예보를 보려면 클릭하세요.

지도 변경 : 확대하려면 엑스 표시가 있는 녹색 버튼, 축소하려면 빼기 표시가 있는 녹색 버튼, 다음 페이지의 지도를 보려면 녹색 화살표를 클릭하세요.


METAR-TAF: